sensor_id;sensor_type;location;lat;lon;timestamp;P1;durP1;ratioP1;P2;durP2;ratioP2
70829;SDS011;58451;51.550;7.208;2023-01-10T00:01:05;14.60;;;3.80;;
70829;SDS011;58451;51.550;7.208;2023-01-10T00:02:38;9.20;;;2.00;;
70829;SDS011;58451;51.550;7.208;2023-01-10T00:04:10;16.10;;;4.10;;
70829;SDS011;58451;51.550;7.208;2023-01-10T00:05:42;11.40;;;3.30;;
70829;SDS011;58451;51.550;7.208;2023-01-10T00:07:14;12.60;;;3.20;;
70829;SDS011;58451;51.550;7.208;2023-01-10T00:08:46;9.30;;;2.70;;
70829;SDS011;58451;51.550;7.208;2023-01-10T00:10:18;14.50;;;4.10;;
70829;SDS011;58451;51.550;7.208;2023-01-10T00:11:50;11.00;;;3.30;;
70829;SDS011;58451;51.550;7.208;2023-01-10T00:13:41;15.20;;;3.40;;
70829;SDS011;58451;51.550;7.208;2023-01-10T00:15:13;12.70;;;3.10;;
70829;SDS011;58451;51.550;7.208;2023-01-10T00:16:45;12.30;;;2.90;;
70829;SDS011;58451;51.550;7.208;2023-01-10T00:18:17;14.50;;;3.20;;
70829;SDS011;58451;51.550;7.208;2023-01-10T00:19:50;17.00;;;4.10;;
70829;SDS011;58451;51.550;7.208;2023-01-10T00:21:21;15.40;;;3.70;;
70829;SDS011;58451;51.550;7.208;2023-01-10T00:22:53;12.90;;;2.40;;
70829;SDS011;58451;51.550;7.208;2023-01-10T00:24:26;11.60;;;3.10;;
70829;SDS011;58451;51.550;7.208;2023-01-10T00:25:57;12.90;;;3.80;;
70829;SDS011;58451;51.550;7.208;2023-01-10T00:27:29;13.00;;;3.60;;
70829;SDS011;58451;51.550;7.208;2023-01-10T00:29:01;13.00;;;3.60;;
70829;SDS011;58451;51.550;7.208;2023-01-10T00:30:33;13.70;;;3.80;;
70829;SDS011;58451;51.550;7.208;2023-01-10T00:32:10;14.70;;;3.80;;
70829;SDS011;58451;51.550;7.208;2023-01-10T00:33:42;16.10;;;4.00;;
70829;SDS011;58451;51.550;7.208;2023-01-10T00:35:14;13.00;;;3.50;;
70829;SDS011;58451;51.550;7.208;2023-01-10T00:36:49;10.10;;;2.90;;
70829;SDS011;58451;51.550;7.208;2023-01-10T00:38:21;11.40;;;3.00;;
70829;SDS011;58451;51.550;7.208;2023-01-10T00:39:55;11.60;;;3.00;;
70829;SDS011;58451;51.550;7.208;2023-01-10T00:41:27;12.50;;;2.80;;
70829;SDS011;58451;51.550;7.208;2023-01-10T00:43:17;12.30;;;2.80;;
70829;SDS011;58451;51.550;7.208;2023-01-10T00:45:08;16.10;;;3.80;;
70829;SDS011;58451;51.550;7.208;2023-01-10T00:46:42;10.90;;;2.80;;
70829;SDS011;58451;51.550;7.208;2023-01-10T00:48:15;11.70;;;3.00;;
70829;SDS011;58451;51.550;7.208;2023-01-10T00:49:47;8.70;;;1.80;;
70829;SDS011;58451;51.550;7.208;2023-01-10T00:51:19;14.90;;;3.40;;
70829;SDS011;58451;51.550;7.208;2023-01-10T00:52:51;12.80;;;3.00;;
70829;SDS011;58451;51.550;7.208;2023-01-10T00:54:23;15.00;;;3.50;;
70829;SDS011;58451;51.550;7.208;2023-01-10T00:55:55;13.70;;;3.20;;
70829;SDS011;58451;51.550;7.208;2023-01-10T00:57:27;14.50;;;3.20;;
70829;SDS011;58451;51.550;7.208;2023-01-10T00:58:59;10.50;;;2.80;;
70829;SDS011;58451;51.550;7.208;2023-01-10T01:00:31;12.10;;;3.00;;
70829;SDS011;58451;51.550;7.208;2023-01-10T01:02:03;13.10;;;2.90;;
70829;SDS011;58451;51.550;7.208;2023-01-10T01:03:35;11.40;;;2.70;;
70829;SDS011;58451;51.550;7.208;2023-01-10T01:05:07;13.10;;;3.50;;
70829;SDS011;58451;51.550;7.208;2023-01-10T01:06:42;14.10;;;3.30;;
70829;SDS011;58451;51.550;7.208;2023-01-10T01:08:19;11.40;;;3.10;;
70829;SDS011;58451;51.550;7.208;2023-01-10T01:09:52;14.30;;;3.20;;
70829;SDS011;58451;51.550;7.208;2023-01-10T01:11:42;11.90;;;2.80;;
70829;SDS011;58451;51.550;7.208;2023-01-10T01:13:17;12.50;;;2.90;;
70829;SDS011;58451;51.550;7.208;2023-01-10T01:14:52;10.80;;;2.70;;
70829;SDS011;58451;51.550;7.208;2023-01-10T01:16:24;10.80;;;2.30;;
70829;SDS011;58451;51.550;7.208;2023-01-10T01:17:56;12.50;;;3.10;;
70829;SDS011;58451;51.550;7.208;2023-01-10T01:19:27;14.00;;;2.90;;
70829;SDS011;58451;51.550;7.208;2023-01-10T01:20:59;11.10;;;2.90;;
70829;SDS011;58451;51.550;7.208;2023-01-10T01:22:34;12.00;;;3.10;;
70829;SDS011;58451;51.550;7.208;2023-01-10T01:24:08;12.90;;;2.40;;
70829;SDS011;58451;51.550;7.208;2023-01-10T01:25:41;13.40;;;3.20;;
70829;SDS011;58451;51.550;7.208;2023-01-10T01:27:13;14.20;;;2.80;;
70829;SDS011;58451;51.550;7.208;2023-01-10T01:28:45;13.90;;;3.40;;
70829;SDS011;58451;51.550;7.208;2023-01-10T01:30:17;13.00;;;3.10;;
70829;SDS011;58451;51.550;7.208;2023-01-10T01:31:49;9.10;;;2.10;;
70829;SDS011;58451;51.550;7.208;2023-01-10T01:33:22;11.60;;;2.20;;
70829;SDS011;58451;51.550;7.208;2023-01-10T01:34:54;14.60;;;3.40;;
70829;SDS011;58451;51.550;7.208;2023-01-10T01:36:25;11.80;;;2.70;;
70829;SDS011;58451;51.550;7.208;2023-01-10T01:37:57;12.80;;;2.80;;
70829;SDS011;58451;51.550;7.208;2023-01-10T01:39:29;11.00;;;2.60;;
70829;SDS011;58451;51.550;7.208;2023-01-10T01:41:01;9.60;;;2.30;;
70829;SDS011;58451;51.550;7.208;2023-01-10T01:42:34;12.60;;;3.10;;
70829;SDS011;58451;51.550;7.208;2023-01-10T01:44:15;12.70;;;2.60;;
70829;SDS011;58451;51.550;7.208;2023-01-10T01:45:49;14.30;;;3.20;;
70829;SDS011;58451;51.550;7.208;2023-01-10T01:47:24;12.10;;;2.60;;
70829;SDS011;58451;51.550;7.208;2023-01-10T01:48:58;12.60;;;2.50;;
70829;SDS011;58451;51.550;7.208;2023-01-10T01:50:39;11.60;;;2.60;;
70829;SDS011;58451;51.550;7.208;2023-01-10T01:52:21;12.70;;;2.60;;
70829;SDS011;58451;51.550;7.208;2023-01-10T01:54:03;10.50;;;2.60;;
70829;SDS011;58451;51.550;7.208;2023-01-10T01:55:41;13.90;;;2.80;;
70829;SDS011;58451;51.550;7.208;2023-01-10T01:57:19;11.60;;;2.20;;
70829;SDS011;58451;51.550;7.208;2023-01-10T02:00:30;10.30;;;2.40;;
70829;SDS011;58451;51.550;7.208;2023-01-10T02:02:07;12.90;;;2.80;;
70829;SDS011;58451;51.550;7.208;2023-01-10T02:03:49;12.90;;;2.20;;
70829;SDS011;58451;51.550;7.208;2023-01-10T02:05:25;10.20;;;2.10;;
70829;SDS011;58451;51.550;7.208;2023-01-10T02:06:57;11.30;;;2.40;;
70829;SDS011;58451;51.550;7.208;2023-01-10T02:08:30;11.10;;;2.20;;
70829;SDS011;58451;51.550;7.208;2023-01-10T02:11:40;11.20;;;2.10;;
70829;SDS011;58451;51.550;7.208;2023-01-10T02:13:14;13.90;;;2.50;;
70829;SDS011;58451;51.550;7.208;2023-01-10T02:14:51;7.80;;;1.50;;
70829;SDS011;58451;51.550;7.208;2023-01-10T02:16:24;8.70;;;1.60;;
70829;SDS011;58451;51.550;7.208;2023-01-10T02:17:57;12.90;;;2.00;;
70829;SDS011;58451;51.550;7.208;2023-01-10T02:19:37;11.40;;;2.20;;
70829;SDS011;58451;51.550;7.208;2023-01-10T02:22:08;12.60;;;2.00;;
70829;SDS011;58451;51.550;7.208;2023-01-10T02:23:50;11.10;;;2.30;;
70829;SDS011;58451;51.550;7.208;2023-01-10T02:43:52;9.00;;;1.50;;
70829;SDS011;58451;51.550;7.208;2023-01-10T02:45:34;15.50;;;1.70;;
70829;SDS011;58451;51.550;7.208;2023-01-10T02:47:12;10.30;;;1.50;;
70829;SDS011;58451;51.550;7.208;2023-01-10T02:48:46;14.30;;;1.50;;
70829;SDS011;58451;51.550;7.208;2023-01-10T02:50:48;14.50;;;1.70;;
70829;SDS011;58451;51.550;7.208;2023-01-10T02:52:36;11.80;;;1.90;;
70829;SDS011;58451;51.550;7.208;2023-01-10T02:54:18;11.40;;;1.50;;
70829;SDS011;58451;51.550;7.208;2023-01-10T02:55:59;8.70;;;1.50;;
70829;SDS011;58451;51.550;7.208;2023-01-10T02:57:55;9.20;;;1.60;;
70829;SDS011;58451;51.550;7.208;2023-01-10T03:04:32;11.10;;;1.20;;
70829;SDS011;58451;51.550;7.208;2023-01-10T03:06:17;10.10;;;1.30;;
70829;SDS011;58451;51.550;7.208;2023-01-10T03:08:25;11.20;;;1.80;;
70829;SDS011;58451;51.550;7.208;2023-01-10T03:10:24;14.90;;;1.60;;
70829;SDS011;58451;51.550;7.208;2023-01-10T03:12:36;8.90;;;1.30;;
70829;SDS011;58451;51.550;7.208;2023-01-10T03:14:20;9.60;;;1.40;;
70829;SDS011;58451;51.550;7.208;2023-01-10T03:15:56;12.30;;;1.70;;
70829;SDS011;58451;51.550;7.208;2023-01-10T03:17:31;9.00;;;1.70;;
70829;SDS011;58451;51.550;7.208;2023-01-10T03:19:14;7.70;;;1.20;;
70829;SDS011;58451;51.550;7.208;2023-01-10T03:20:51;9.30;;;1.70;;
70829;SDS011;58451;51.550;7.208;2023-01-10T03:22:26;11.50;;;1.70;;
70829;SDS011;58451;51.550;7.208;2023-01-10T03:24:11;12.30;;;1.50;;
70829;SDS011;58451;51.550;7.208;2023-01-10T03:25:49;11.50;;;1.70;;
70829;SDS011;58451;51.550;7.208;2023-01-10T03:27:43;11.00;;;1.40;;
70829;SDS011;58451;51.550;7.208;2023-01-10T03:29:25;15.20;;;2.00;;
70829;SDS011;58451;51.550;7.208;2023-01-10T03:31:10;7.80;;;1.30;;
70829;SDS011;58451;51.550;7.208;2023-01-10T03:32:55;10.00;;;1.30;;
70829;SDS011;58451;51.550;7.208;2023-01-10T03:34:30;11.90;;;1.40;;
70829;SDS011;58451;51.550;7.208;2023-01-10T03:38:05;8.00;;;1.40;;
70829;SDS011;58451;51.550;7.208;2023-01-10T03:39:52;9.30;;;1.10;;
70829;SDS011;58451;51.550;7.208;2023-01-10T03:41:43;11.50;;;1.30;;
70829;SDS011;58451;51.550;7.208;2023-01-10T03:43:37;9.90;;;1.10;;
70829;SDS011;58451;51.550;7.208;2023-01-10T03:45:45;11.70;;;1.60;;
70829;SDS011;58451;51.550;7.208;2023-01-10T03:47:38;8.40;;;1.50;;
70829;SDS011;58451;51.550;7.208;2023-01-10T03:49:22;13.20;;;2.40;;
70829;SDS011;58451;51.550;7.208;2023-01-10T03:50:59;15.40;;;2.60;;
70829;SDS011;58451;51.550;7.208;2023-01-10T03:52:35;12.50;;;2.20;;
70829;SDS011;58451;51.550;7.208;2023-01-10T03:54:10;11.90;;;2.20;;
70829;SDS011;58451;51.550;7.208;2023-01-10T03:55:47;15.80;;;2.50;;
70829;SDS011;58451;51.550;7.208;2023-01-10T03:57:23;11.10;;;2.10;;
70829;SDS011;58451;51.550;7.208;2023-01-10T03:58:55;12.90;;;2.00;;
70829;SDS011;58451;51.550;7.208;2023-01-10T04:00:27;18.40;;;2.60;;
70829;SDS011;58451;51.550;7.208;2023-01-10T04:02:00;8.50;;;1.60;;
70829;SDS011;58451;51.550;7.208;2023-01-10T04:03:32;11.10;;;1.80;;
70829;SDS011;58451;51.550;7.208;2023-01-10T04:05:05;13.80;;;2.10;;
70829;SDS011;58451;51.550;7.208;2023-01-10T04:06:37;11.80;;;1.70;;
70829;SDS011;58451;51.550;7.208;2023-01-10T04:08:09;11.50;;;1.70;;
70829;SDS011;58451;51.550;7.208;2023-01-10T04:09:41;9.10;;;1.20;;
70829;SDS011;58451;51.550;7.208;2023-01-10T04:11:13;8.60;;;1.40;;
70829;SDS011;58451;51.550;7.208;2023-01-10T04:12:46;9.10;;;1.90;;
70829;SDS011;58451;51.550;7.208;2023-01-10T04:14:17;7.70;;;1.90;;
70829;SDS011;58451;51.550;7.208;2023-01-10T04:15:49;9.10;;;1.20;;
70829;SDS011;58451;51.550;7.208;2023-01-10T04:17:22;14.50;;;1.60;;
70829;SDS011;58451;51.550;7.208;2023-01-10T04:18:54;11.20;;;1.80;;
70829;SDS011;58451;51.550;7.208;2023-01-10T04:20:26;12.70;;;1.80;;
70829;SDS011;58451;51.550;7.208;2023-01-10T04:21:58;10.20;;;1.60;;
70829;SDS011;58451;51.550;7.208;2023-01-10T04:23:30;10.10;;;1.50;;
70829;SDS011;58451;51.550;7.208;2023-01-10T04:25:02;9.30;;;1.50;;
70829;SDS011;58451;51.550;7.208;2023-01-10T04:26:34;10.20;;;1.90;;
70829;SDS011;58451;51.550;7.208;2023-01-10T04:28:06;11.30;;;1.80;;
70829;SDS011;58451;51.550;7.208;2023-01-10T04:29:38;11.30;;;1.60;;
70829;SDS011;58451;51.550;7.208;2023-01-10T04:31:10;12.10;;;1.60;;
70829;SDS011;58451;51.550;7.208;2023-01-10T04:32:42;10.60;;;1.70;;
70829;SDS011;58451;51.550;7.208;2023-01-10T04:34:14;11.00;;;1.50;;
70829;SDS011;58451;51.550;7.208;2023-01-10T04:35:48;11.50;;;1.80;;
70829;SDS011;58451;51.550;7.208;2023-01-10T04:37:20;6.40;;;1.20;;
70829;SDS011;58451;51.550;7.208;2023-01-10T04:38:52;12.60;;;1.90;;
70829;SDS011;58451;51.550;7.208;2023-01-10T04:40:24;11.70;;;1.40;;
70829;SDS011;58451;51.550;7.208;2023-01-10T04:41:56;9.60;;;1.50;;
70829;SDS011;58451;51.550;7.208;2023-01-10T04:43:28;10.60;;;1.80;;
70829;SDS011;58451;51.550;7.208;2023-01-10T04:44:59;10.10;;;1.70;;
70829;SDS011;58451;51.550;7.208;2023-01-10T04:46:32;10.80;;;1.50;;
70829;SDS011;58451;51.550;7.208;2023-01-10T04:48:04;11.20;;;1.30;;
70829;SDS011;58451;51.550;7.208;2023-01-10T04:49:37;11.70;;;1.60;;
70829;SDS011;58451;51.550;7.208;2023-01-10T04:51:09;9.80;;;1.90;;
70829;SDS011;58451;51.550;7.208;2023-01-10T04:52:41;11.80;;;1.70;;
70829;SDS011;58451;51.550;7.208;2023-01-10T04:54:14;9.10;;;1.30;;
70829;SDS011;58451;51.550;7.208;2023-01-10T04:55:46;8.10;;;1.60;;
70829;SDS011;58451;51.550;7.208;2023-01-10T04:57:18;11.10;;;2.10;;
70829;SDS011;58451;51.550;7.208;2023-01-10T04:58:52;13.50;;;2.10;;
70829;SDS011;58451;51.550;7.208;2023-01-10T05:00:25;9.10;;;1.60;;
70829;SDS011;58451;51.550;7.208;2023-01-10T05:01:57;11.00;;;2.00;;
70829;SDS011;58451;51.550;7.208;2023-01-10T05:03:29;11.40;;;1.70;;
70829;SDS011;58451;51.550;7.208;2023-01-10T05:05:01;11.60;;;1.70;;
70829;SDS011;58451;51.550;7.208;2023-01-10T05:06:33;10.00;;;1.50;;
70829;SDS011;58451;51.550;7.208;2023-01-10T05:08:05;15.30;;;2.10;;
70829;SDS011;58451;51.550;7.208;2023-01-10T05:09:36;14.10;;;1.80;;
70829;SDS011;58451;51.550;7.208;2023-01-10T05:11:09;13.70;;;1.80;;
70829;SDS011;58451;51.550;7.208;2023-01-10T05:12:41;17.20;;;2.00;;
70829;SDS011;58451;51.550;7.208;2023-01-10T05:14:13;8.90;;;1.30;;
70829;SDS011;58451;51.550;7.208;2023-01-10T05:15:45;10.20;;;1.50;;
70829;SDS011;58451;51.550;7.208;2023-01-10T05:17:17;14.00;;;2.10;;
70829;SDS011;58451;51.550;7.208;2023-01-10T05:18:49;7.00;;;0.80;;
70829;SDS011;58451;51.550;7.208;2023-01-10T05:20:21;10.70;;;1.70;;
70829;SDS011;58451;51.550;7.208;2023-01-10T05:21:53;12.50;;;1.90;;
70829;SDS011;58451;51.550;7.208;2023-01-10T05:23:25;9.90;;;1.50;;
70829;SDS011;58451;51.550;7.208;2023-01-10T05:24:57;10.40;;;1.20;;
70829;SDS011;58451;51.550;7.208;2023-01-10T05:26:29;10.00;;;1.40;;
70829;SDS011;58451;51.550;7.208;2023-01-10T05:28:00;11.30;;;1.80;;
70829;SDS011;58451;51.550;7.208;2023-01-10T05:29:32;13.60;;;1.80;;
70829;SDS011;58451;51.550;7.208;2023-01-10T05:31:08;11.30;;;1.90;;
70829;SDS011;58451;51.550;7.208;2023-01-10T05:32:42;11.00;;;1.80;;
70829;SDS011;58451;51.550;7.208;2023-01-10T05:34:13;12.10;;;1.80;;
70829;SDS011;58451;51.550;7.208;2023-01-10T05:35:45;7.10;;;1.20;;
70829;SDS011;58451;51.550;7.208;2023-01-10T05:37:17;11.50;;;1.40;;
70829;SDS011;58451;51.550;7.208;2023-01-10T05:38:49;11.80;;;1.50;;
70829;SDS011;58451;51.550;7.208;2023-01-10T05:40:20;13.00;;;1.80;;
70829;SDS011;58451;51.550;7.208;2023-01-10T05:41:55;13.80;;;1.20;;
70829;SDS011;58451;51.550;7.208;2023-01-10T05:43:28;12.10;;;1.60;;
70829;SDS011;58451;51.550;7.208;2023-01-10T05:45:01;9.00;;;1.30;;
70829;SDS011;58451;51.550;7.208;2023-01-10T05:46:33;13.30;;;2.10;;
70829;SDS011;58451;51.550;7.208;2023-01-10T05:48:05;11.70;;;1.20;;
70829;SDS011;58451;51.550;7.208;2023-01-10T05:49:37;17.10;;;2.20;;
70829;SDS011;58451;51.550;7.208;2023-01-10T05:51:09;8.20;;;1.10;;
70829;SDS011;58451;51.550;7.208;2023-01-10T05:52:41;9.70;;;1.60;;
70829;SDS011;58451;51.550;7.208;2023-01-10T05:54:13;10.40;;;2.10;;
70829;SDS011;58451;51.550;7.208;2023-01-10T05:55:56;9.70;;;1.60;;
70829;SDS011;58451;51.550;7.208;2023-01-10T05:57:32;10.50;;;1.40;;
70829;SDS011;58451;51.550;7.208;2023-01-10T05:59:04;11.50;;;1.70;;
70829;SDS011;58451;51.550;7.208;2023-01-10T06:00:47;10.80;;;1.20;;
70829;SDS011;58451;51.550;7.208;2023-01-10T06:02:19;15.90;;;1.80;;
70829;SDS011;58451;51.550;7.208;2023-01-10T06:03:51;8.50;;;1.30;;
70829;SDS011;58451;51.550;7.208;2023-01-10T06:05:26;12.80;;;1.40;;
70829;SDS011;58451;51.550;7.208;2023-01-10T06:06:58;12.20;;;1.90;;
70829;SDS011;58451;51.550;7.208;2023-01-10T06:08:30;13.50;;;1.70;;
70829;SDS011;58451;51.550;7.208;2023-01-10T06:10:02;11.40;;;1.50;;
70829;SDS011;58451;51.550;7.208;2023-01-10T06:11:34;10.20;;;1.30;;
70829;SDS011;58451;51.550;7.208;2023-01-10T06:13:11;12.60;;;2.10;;
70829;SDS011;58451;51.550;7.208;2023-01-10T06:14:43;12.80;;;1.70;;
70829;SDS011;58451;51.550;7.208;2023-01-10T06:16:16;12.40;;;1.40;;
70829;SDS011;58451;51.550;7.208;2023-01-10T06:17:48;11.00;;;1.40;;
70829;SDS011;58451;51.550;7.208;2023-01-10T06:19:21;11.00;;;1.60;;
70829;SDS011;58451;51.550;7.208;2023-01-10T06:20:53;10.90;;;1.50;;
70829;SDS011;58451;51.550;7.208;2023-01-10T06:22:25;8.10;;;1.30;;
70829;SDS011;58451;51.550;7.208;2023-01-10T06:23:58;11.40;;;2.00;;
70829;SDS011;58451;51.550;7.208;2023-01-10T06:25:31;11.60;;;1.50;;
70829;SDS011;58451;51.550;7.208;2023-01-10T06:27:07;14.40;;;1.70;;
70829;SDS011;58451;51.550;7.208;2023-01-10T06:28:41;13.10;;;1.60;;
70829;SDS011;58451;51.550;7.208;2023-01-10T06:30:13;14.20;;;1.60;;
70829;SDS011;58451;51.550;7.208;2023-01-10T06:31:45;13.90;;;1.80;;
70829;SDS011;58451;51.550;7.208;2023-01-10T06:33:17;9.60;;;1.10;;
70829;SDS011;58451;51.550;7.208;2023-01-10T06:34:52;14.40;;;1.50;;
70829;SDS011;58451;51.550;7.208;2023-01-10T06:36:24;11.30;;;1.30;;
70829;SDS011;58451;51.550;7.208;2023-01-10T06:37:56;13.40;;;1.70;;
70829;SDS011;58451;51.550;7.208;2023-01-10T06:39:28;13.40;;;2.30;;
70829;SDS011;58451;51.550;7.208;2023-01-10T06:41:00;12.90;;;1.50;;
70829;SDS011;58451;51.550;7.208;2023-01-10T06:42:43;18.40;;;1.70;;
70829;SDS011;58451;51.550;7.208;2023-01-10T06:44:15;10.10;;;1.20;;
70829;SDS011;58451;51.550;7.208;2023-01-10T06:45:47;12.90;;;1.70;;
70829;SDS011;58451;51.550;7.208;2023-01-10T06:47:19;13.80;;;1.60;;
70829;SDS011;58451;51.550;7.208;2023-01-10T06:48:51;9.70;;;1.10;;
70829;SDS011;58451;51.550;7.208;2023-01-10T06:50:23;7.80;;;0.80;;
70829;SDS011;58451;51.550;7.208;2023-01-10T06:51:55;13.70;;;1.70;;
70829;SDS011;58451;51.550;7.208;2023-01-10T06:53:28;11.20;;;1.80;;
70829;SDS011;58451;51.550;7.208;2023-01-10T06:55:01;14.60;;;1.80;;
70829;SDS011;58451;51.550;7.208;2023-01-10T06:56:33;10.30;;;1.00;;
70829;SDS011;58451;51.550;7.208;2023-01-10T06:58:05;15.30;;;1.80;;
70829;SDS011;58451;51.550;7.208;2023-01-10T06:59:37;13.50;;;1.50;;
70829;SDS011;58451;51.550;7.208;2023-01-10T07:01:13;18.10;;;1.90;;
70829;SDS011;58451;51.550;7.208;2023-01-10T07:02:48;11.10;;;1.20;;
70829;SDS011;58451;51.550;7.208;2023-01-10T07:04:21;11.60;;;1.70;;
70829;SDS011;58451;51.550;7.208;2023-01-10T07:05:54;14.30;;;1.90;;
70829;SDS011;58451;51.550;7.208;2023-01-10T07:07:26;7.80;;;0.90;;
70829;SDS011;58451;51.550;7.208;2023-01-10T07:08:58;14.70;;;1.40;;
70829;SDS011;58451;51.550;7.208;2023-01-10T07:10:30;9.80;;;1.60;;
70829;SDS011;58451;51.550;7.208;2023-01-10T07:12:02;13.70;;;2.40;;
70829;SDS011;58451;51.550;7.208;2023-01-10T07:13:35;14.10;;;1.70;;
70829;SDS011;58451;51.550;7.208;2023-01-10T07:15:08;14.90;;;1.50;;
70829;SDS011;58451;51.550;7.208;2023-01-10T07:16:42;13.00;;;1.30;;
70829;SDS011;58451;51.550;7.208;2023-01-10T07:18:14;17.80;;;2.90;;
70829;SDS011;58451;51.550;7.208;2023-01-10T07:19:47;12.30;;;1.80;;
70829;SDS011;58451;51.550;7.208;2023-01-10T07:21:19;14.60;;;2.50;;
70829;SDS011;58451;51.550;7.208;2023-01-10T07:22:58;14.90;;;3.10;;
70829;SDS011;58451;51.550;7.208;2023-01-10T07:24:30;19.00;;;3.00;;
70829;SDS011;58451;51.550;7.208;2023-01-10T07:26:08;17.10;;;3.50;;
70829;SDS011;58451;51.550;7.208;2023-01-10T07:27:42;17.50;;;3.10;;
70829;SDS011;58451;51.550;7.208;2023-01-10T07:29:14;17.60;;;4.00;;
70829;SDS011;58451;51.550;7.208;2023-01-10T07:30:45;14.60;;;3.10;;
70829;SDS011;58451;51.550;7.208;2023-01-10T07:32:18;19.00;;;4.60;;
70829;SDS011;58451;51.550;7.208;2023-01-10T07:33:50;21.40;;;4.60;;
70829;SDS011;58451;51.550;7.208;2023-01-10T07:35:23;22.50;;;5.10;;
70829;SDS011;58451;51.550;7.208;2023-01-10T07:37:00;15.40;;;3.70;;
70829;SDS011;58451;51.550;7.208;2023-01-10T07:38:32;14.70;;;3.00;;
70829;SDS011;58451;51.550;7.208;2023-01-10T07:40:05;24.20;;;5.00;;
70829;SDS011;58451;51.550;7.208;2023-01-10T07:41:38;25.50;;;5.10;;
70829;SDS011;58451;51.550;7.208;2023-01-10T07:43:10;17.70;;;3.90;;
70829;SDS011;58451;51.550;7.208;2023-01-10T07:44:42;19.40;;;3.70;;
70829;SDS011;58451;51.550;7.208;2023-01-10T07:46:13;15.10;;;3.20;;
70829;SDS011;58451;51.550;7.208;2023-01-10T07:47:46;16.30;;;3.10;;
70829;SDS011;58451;51.550;7.208;2023-01-10T07:49:20;18.00;;;4.00;;
70829;SDS011;58451;51.550;7.208;2023-01-10T07:50:59;18.00;;;3.40;;
70829;SDS011;58451;51.550;7.208;2023-01-10T07:52:32;15.60;;;3.40;;
70829;SDS011;58451;51.550;7.208;2023-01-10T07:54:04;16.50;;;3.20;;
70829;SDS011;58451;51.550;7.208;2023-01-10T07:55:37;15.00;;;3.50;;
70829;SDS011;58451;51.550;7.208;2023-01-10T07:57:10;17.60;;;4.00;;
70829;SDS011;58451;51.550;7.208;2023-01-10T07:58:42;17.30;;;3.50;;
70829;SDS011;58451;51.550;7.208;2023-01-10T08:00:14;15.70;;;2.50;;
70829;SDS011;58451;51.550;7.208;2023-01-10T08:01:49;16.40;;;3.30;;
70829;SDS011;58451;51.550;7.208;2023-01-10T08:03:21;21.20;;;3.20;;
70829;SDS011;58451;51.550;7.208;2023-01-10T08:04:56;14.20;;;3.00;;
70829;SDS011;58451;51.550;7.208;2023-01-10T08:06:28;17.90;;;2.90;;
70829;SDS011;58451;51.550;7.208;2023-01-10T08:08:09;15.30;;;3.00;;
70829;SDS011;58451;51.550;7.208;2023-01-10T08:09:42;10.60;;;2.30;;
70829;SDS011;58451;51.550;7.208;2023-01-10T08:11:15;16.40;;;3.80;;
70829;SDS011;58451;51.550;7.208;2023-01-10T08:12:49;11.90;;;2.50;;
70829;SDS011;58451;51.550;7.208;2023-01-10T08:14:21;20.30;;;3.60;;
70829;SDS011;58451;51.550;7.208;2023-01-10T08:15:56;17.50;;;3.70;;
70829;SDS011;58451;51.550;7.208;2023-01-10T08:17:35;20.40;;;3.40;;
70829;SDS011;58451;51.550;7.208;2023-01-10T08:19:21;17.10;;;3.20;;
70829;SDS011;58451;51.550;7.208;2023-01-10T08:20:54;10.80;;;2.00;;
70829;SDS011;58451;51.550;7.208;2023-01-10T08:22:26;18.30;;;3.10;;
70829;SDS011;58451;51.550;7.208;2023-01-10T08:23:58;18.90;;;3.50;;
70829;SDS011;58451;51.550;7.208;2023-01-10T08:25:29;20.50;;;2.90;;
70829;SDS011;58451;51.550;7.208;2023-01-10T08:27:01;17.10;;;3.00;;
70829;SDS011;58451;51.550;7.208;2023-01-10T08:28:33;16.30;;;2.70;;
70829;SDS011;58451;51.550;7.208;2023-01-10T08:30:06;15.90;;;2.30;;
70829;SDS011;58451;51.550;7.208;2023-01-10T08:31:40;20.00;;;2.80;;
70829;SDS011;58451;51.550;7.208;2023-01-10T08:33:12;17.70;;;2.30;;
70829;SDS011;58451;51.550;7.208;2023-01-10T08:48:05;15.80;;;3.00;;
70829;SDS011;58451;51.550;7.208;2023-01-10T08:49:43;21.00;;;2.10;;
70829;SDS011;58451;51.550;7.208;2023-01-10T08:51:21;15.00;;;2.20;;
70829;SDS011;58451;51.550;7.208;2023-01-10T08:52:57;17.20;;;2.10;;
70829;SDS011;58451;51.550;7.208;2023-01-10T08:54:30;14.90;;;1.50;;
70829;SDS011;58451;51.550;7.208;2023-01-10T08:56:03;20.90;;;2.90;;
70829;SDS011;58451;51.550;7.208;2023-01-10T08:57:38;16.60;;;2.00;;
70829;SDS011;58451;51.550;7.208;2023-01-10T08:59:10;20.80;;;2.30;;
70829;SDS011;58451;51.550;7.208;2023-01-10T09:00:42;17.80;;;2.50;;
70829;SDS011;58451;51.550;7.208;2023-01-10T09:02:15;19.30;;;2.60;;
70829;SDS011;58451;51.550;7.208;2023-01-10T09:03:48;15.00;;;1.90;;
70829;SDS011;58451;51.550;7.208;2023-01-10T09:05:21;17.10;;;2.20;;
70829;SDS011;58451;51.550;7.208;2023-01-10T09:07:01;18.70;;;3.10;;
70829;SDS011;58451;51.550;7.208;2023-01-10T09:08:34;15.10;;;2.40;;
70829;SDS011;58451;51.550;7.208;2023-01-10T09:10:07;13.70;;;2.10;;
70829;SDS011;58451;51.550;7.208;2023-01-10T09:11:40;16.20;;;2.10;;
70829;SDS011;58451;51.550;7.208;2023-01-10T09:13:12;14.40;;;2.00;;
70829;SDS011;58451;51.550;7.208;2023-01-10T09:14:44;14.60;;;1.70;;
70829;SDS011;58451;51.550;7.208;2023-01-10T09:16:18;13.90;;;1.80;;
70829;SDS011;58451;51.550;7.208;2023-01-10T09:17:59;21.50;;;2.50;;
70829;SDS011;58451;51.550;7.208;2023-01-10T09:19:34;18.40;;;2.90;;
70829;SDS011;58451;51.550;7.208;2023-01-10T09:21:05;19.20;;;2.00;;
70829;SDS011;58451;51.550;7.208;2023-01-10T09:22:38;14.30;;;2.10;;
70829;SDS011;58451;51.550;7.208;2023-01-10T09:24:10;16.60;;;1.80;;
70829;SDS011;58451;51.550;7.208;2023-01-10T09:25:42;16.50;;;1.90;;
70829;SDS011;58451;51.550;7.208;2023-01-10T09:27:15;16.90;;;2.10;;
70829;SDS011;58451;51.550;7.208;2023-01-10T09:28:47;21.00;;;2.40;;
70829;SDS011;58451;51.550;7.208;2023-01-10T09:30:19;18.70;;;1.90;;
70829;SDS011;58451;51.550;7.208;2023-01-10T09:31:51;19.60;;;2.00;;
70829;SDS011;58451;51.550;7.208;2023-01-10T09:33:24;18.40;;;1.70;;
70829;SDS011;58451;51.550;7.208;2023-01-10T09:35:00;14.90;;;1.60;;
70829;SDS011;58451;51.550;7.208;2023-01-10T09:36:32;15.50;;;1.50;;
70829;SDS011;58451;51.550;7.208;2023-01-10T09:38:06;16.80;;;1.30;;
70829;SDS011;58451;51.550;7.208;2023-01-10T09:39:41;12.30;;;1.40;;
70829;SDS011;58451;51.550;7.208;2023-01-10T09:45:41;21.30;;;2.20;;
70829;SDS011;58451;51.550;7.208;2023-01-10T09:50:08;13.80;;;1.70;;
70829;SDS011;58451;51.550;7.208;2023-01-10T09:51:45;16.00;;;1.70;;
70829;SDS011;58451;51.550;7.208;2023-01-10T09:53:21;15.10;;;1.30;;
70829;SDS011;58451;51.550;7.208;2023-01-10T09:54:57;16.40;;;2.20;;
70829;SDS011;58451;51.550;7.208;2023-01-10T09:56:38;13.50;;;1.50;;
70829;SDS011;58451;51.550;7.208;2023-01-10T09:58:13;13.90;;;1.70;;
70829;SDS011;58451;51.550;7.208;2023-01-10T09:59:51;13.60;;;1.90;;
70829;SDS011;58451;51.550;7.208;2023-01-10T10:01:29;14.90;;;1.60;;
70829;SDS011;58451;51.550;7.208;2023-01-10T10:05:25;19.80;;;1.70;;
70829;SDS011;58451;51.550;7.208;2023-01-10T10:06:59;12.60;;;1.90;;
70829;SDS011;58451;51.550;7.208;2023-01-10T10:08:31;19.30;;;2.00;;
70829;SDS011;58451;51.550;7.208;2023-01-10T10:10:05;13.60;;;1.70;;
70829;SDS011;58451;51.550;7.208;2023-01-10T10:11:54;13.30;;;1.50;;
70829;SDS011;58451;51.550;7.208;2023-01-10T10:13:53;15.30;;;1.50;;
70829;SDS011;58451;51.550;7.208;2023-01-10T10:21:40;14.10;;;1.70;;
70829;SDS011;58451;51.550;7.208;2023-01-10T10:23:37;15.30;;;1.90;;